Terminal Aerodrome Forecast
Issued by NWS

Home | Current Version | Previous Version | Text Only | Print | Product List | Glossary Off
Versions: 1 2 3 4 5 6 7 8 9 10 11 12 13 14 15 16 17 18 19 20 21 22 23 24 25 26 27 28 29 30 31 32 33 34 35

000
FTUS43 KLOT 311132
TAFDPA
TAF
KDPA 311132Z 3112/0112 02014G22KT P6SM SCT015 OVC020
      TEMPO 3112/3114 3SM -DZ BR BKN015
     FM311500 03015G25KT P6SM BKN020
     FM312100 03014G21KT P6SM SCT040
     FM010100 03008KT P6SM FEW250=

USA.gov is the U.S. government's official web portal to all federal, state and local government web resources and services.